sensor_id;sensor_type;location;lat;lon;timestamp;pressure;altitude;pressure_sealevel;temperature;humidity
36062;BME280;22123;52.412;20.970;2023-05-08T00:01:12;102089.16;;;-0.07;100.00
36062;BME280;22123;52.412;20.970;2023-05-08T00:03:38;102081.56;;;-0.16;100.00
36062;BME280;22123;52.412;20.970;2023-05-08T00:06:05;102116.75;;;0.08;100.00
36062;BME280;22123;52.412;20.970;2023-05-08T00:08:31;102093.56;;;-0.08;100.00
36062;BME280;22123;52.412;20.970;2023-05-08T00:10:57;102089.63;;;-0.20;100.00
36062;BME280;22123;52.412;20.970;2023-05-08T00:13:23;102068.78;;;-0.27;100.00
36062;BME280;22123;52.412;20.970;2023-05-08T00:15:49;102073.31;;;-0.31;100.00
36062;BME280;22123;52.412;20.970;2023-05-08T00:18:15;102087.25;;;-0.26;100.00
36062;BME280;22123;52.412;20.970;2023-05-08T00:20:41;102117.38;;;-0.08;100.00
36062;BME280;22123;52.412;20.970;2023-05-08T00:23:06;102114.94;;;-0.12;100.00
36062;BME280;22123;52.412;20.970;2023-05-08T00:25:33;102079.91;;;-0.41;100.00
36062;BME280;22123;52.412;20.970;2023-05-08T00:27:59;102095.25;;;-0.27;100.00
36062;BME280;22123;52.412;20.970;2023-05-08T00:30:25;102089.41;;;-0.36;100.00
36062;BME280;22123;52.412;20.970;2023-05-08T00:32:51;102083.53;;;-0.44;100.00
36062;BME280;22123;52.412;20.970;2023-05-08T00:35:17;102133.91;;;-0.23;100.00
36062;BME280;22123;52.412;20.970;2023-05-08T00:37:43;102133.91;;;-0.23;100.00
36062;BME280;22123;52.412;20.970;2023-05-08T00:40:10;102101.09;;;-0.41;100.00
36062;BME280;22123;52.412;20.970;2023-05-08T00:42:36;102109.66;;;-0.34;100.00
36062;BME280;22123;52.412;20.970;2023-05-08T00:45:02;102100.28;;;-0.43;100.00
36062;BME280;22123;52.412;20.970;2023-05-08T00:47:29;102140.84;;;-0.21;100.00
36062;BME280;22123;52.412;20.970;2023-05-08T00:49:58;102121.09;;;-0.34;100.00
36062;BME280;22123;52.412;20.970;2023-05-08T00:52:25;102144.50;;;-0.23;100.00
36062;BME280;22123;52.412;20.970;2023-05-08T00:54:52;102104.25;;;-0.55;100.00
36062;BME280;22123;52.412;20.970;2023-05-08T00:57:18;102107.72;;;-0.53;100.00
36062;BME280;22123;52.412;20.970;2023-05-08T00:59:45;102115.59;;;-0.51;100.00
36062;BME280;22123;52.412;20.970;2023-05-08T01:02:12;102125.09;;;-0.46;100.00
36062;BME280;22123;52.412;20.970;2023-05-08T01:04:39;102107.84;;;-0.56;100.00
36062;BME280;22123;52.412;20.970;2023-05-08T01:07:06;102097.66;;;-0.67;100.00
36062;BME280;22123;52.412;20.970;2023-05-08T01:09:32;102107.41;;;-0.67;100.00
36062;BME280;22123;52.412;20.970;2023-05-08T01:12:20;102156.84;;;-0.46;100.00
36062;BME280;22123;52.412;20.970;2023-05-08T01:18:01;102165.56;;;-0.44;100.00
36062;BME280;22123;52.412;20.970;2023-05-08T01:21:08;102168.47;;;-0.50;100.00
36062;BME280;22123;52.412;20.970;2023-05-08T01:29:27;102176.56;;;-0.55;100.00
36062;BME280;22123;52.412;20.970;2023-05-08T01:32:16;102181.09;;;-0.58;100.00
36062;BME280;22123;52.412;20.970;2023-05-08T01:37:49;102134.59;;;-0.88;100.00
36062;BME280;22123;52.412;20.970;2023-05-08T01:40:20;102154.72;;;-0.83;100.00
36062;BME280;22123;52.412;20.970;2023-05-08T01:42:56;102153.81;;;-0.82;100.00
36062;BME280;22123;52.412;20.970;2023-05-08T01:45:24;102187.59;;;-0.67;100.00
36062;BME280;22123;52.412;20.970;2023-05-08T01:48:02;102159.25;;;-0.87;100.00
36062;BME280;22123;52.412;20.970;2023-05-08T01:50:32;102170.59;;;-0.83;100.00
36062;BME280;22123;52.412;20.970;2023-05-08T01:53:06;102200.34;;;-0.77;100.00
36062;BME280;22123;52.412;20.970;2023-05-08T01:55:35;102142.47;;;-1.10;100.00
36062;BME280;22123;52.412;20.970;2023-05-08T01:58:08;102138.88;;;-1.09;100.00
36062;BME280;22123;52.412;20.970;2023-05-08T02:00:34;102137.25;;;-1.11;100.00
36062;BME280;22123;52.412;20.970;2023-05-08T02:03:04;102194.22;;;-0.79;100.00
36062;BME280;22123;52.412;20.970;2023-05-08T02:05:31;102144.94;;;-1.05;100.00
36062;BME280;22123;52.412;20.970;2023-05-08T02:07:59;102167.53;;;-0.96;100.00
36062;BME280;22123;52.412;20.970;2023-05-08T02:10:27;102149.47;;;-1.09;100.00
36062;BME280;22123;52.412;20.970;2023-05-08T02:12:55;102183.28;;;-0.93;100.00
36062;BME280;22123;52.412;20.970;2023-05-08T02:15:21;102197.28;;;-0.90;100.00
36062;BME280;22123;52.412;20.970;2023-05-08T02:17:47;102193.91;;;-0.95;100.00
36062;BME280;22123;52.412;20.970;2023-05-08T02:20:14;102130.31;;;-1.39;100.00
36062;BME280;22123;52.412;20.970;2023-05-08T02:22:42;102156.16;;;-1.24;100.00
36062;BME280;22123;52.412;20.970;2023-05-08T02:25:11;102155.59;;;-1.32;100.00
36062;BME280;22123;52.412;20.970;2023-05-08T02:27:38;102197.97;;;-1.10;100.00
36062;BME280;22123;52.412;20.970;2023-05-08T02:30:05;102159.31;;;-1.37;100.00
36062;BME280;22123;52.412;20.970;2023-05-08T02:32:32;102148.94;;;-1.44;100.00
36062;BME280;22123;52.412;20.970;2023-05-08T02:34:59;102136.06;;;-1.53;100.00
36062;BME280;22123;52.412;20.970;2023-05-08T02:37:26;102186.19;;;-1.26;100.00
36062;BME280;22123;52.412;20.970;2023-05-08T02:39:53;102169.22;;;-1.44;100.00
36062;BME280;22123;52.412;20.970;2023-05-08T02:42:21;102187.25;;;-1.30;100.00
36062;BME280;22123;52.412;20.970;2023-05-08T02:44:47;102151.91;;;-1.53;100.00
36062;BME280;22123;52.412;20.970;2023-05-08T02:49:49;102154.31;;;-1.47;100.00
36062;BME280;22123;52.412;20.970;2023-05-08T02:52:22;102195.88;;;-1.25;100.00
36062;BME280;22123;52.412;20.970;2023-05-08T03:00:02;102199.53;;;-1.29;100.00
36062;BME280;22123;52.412;20.970;2023-05-08T03:02:36;102154.81;;;-1.61;100.00
36062;BME280;22123;52.412;20.970;2023-05-08T03:05:16;102198.78;;;-1.33;100.00
36062;BME280;22123;52.412;20.970;2023-05-08T03:07:44;102204.91;;;-1.32;100.00
36062;BME280;22123;52.412;20.970;2023-05-08T03:10:12;102149.03;;;-1.72;100.00
36062;BME280;22123;52.412;20.970;2023-05-08T03:12:40;102167.25;;;-1.64;100.00
36062;BME280;22123;52.412;20.970;2023-05-08T03:15:12;102207.78;;;-1.38;100.00
36062;BME280;22123;52.412;20.970;2023-05-08T03:17:40;102184.66;;;-1.59;100.00
36062;BME280;22123;52.412;20.970;2023-05-08T03:20:11;102126.78;;;-1.92;100.00
36062;BME280;22123;52.412;20.970;2023-05-08T03:22:40;102159.66;;;-1.73;100.00
36062;BME280;22123;52.412;20.970;2023-05-08T03:25:09;102215.75;;;-1.40;100.00
36062;BME280;22123;52.412;20.970;2023-05-08T03:27:36;102153.38;;;-1.71;100.00
36062;BME280;22123;52.412;20.970;2023-05-08T03:30:03;102220.72;;;-1.31;100.00
36062;BME280;22123;52.412;20.970;2023-05-08T03:32:30;102223.25;;;-1.28;100.00
36062;BME280;22123;52.412;20.970;2023-05-08T03:34:57;102169.44;;;-1.50;100.00
36062;BME280;22123;52.412;20.970;2023-05-08T03:37:26;102188.16;;;-1.31;100.00
36062;BME280;22123;52.412;20.970;2023-05-08T03:39:51;102208.72;;;-1.14;100.00
36062;BME280;22123;52.412;20.970;2023-05-08T03:42:17;102213.72;;;-1.07;100.00
36062;BME280;22123;52.412;20.970;2023-05-08T03:44:43;102192.53;;;-1.05;100.00
36062;BME280;22123;52.412;20.970;2023-05-08T03:47:09;102203.63;;;-0.95;100.00
36062;BME280;22123;52.412;20.970;2023-05-08T03:49:36;102204.06;;;-0.82;100.00
36062;BME280;22123;52.412;20.970;2023-05-08T03:52:03;102179.72;;;-0.92;100.00
36062;BME280;22123;52.412;20.970;2023-05-08T03:54:29;102180.34;;;-0.85;100.00
36062;BME280;22123;52.412;20.970;2023-05-08T03:56:55;102196.91;;;-0.80;100.00
36062;BME280;22123;52.412;20.970;2023-05-08T03:59:29;102225.09;;;-0.56;100.00
36062;BME280;22123;52.412;20.970;2023-05-08T04:02:07;102185.38;;;-0.78;100.00
36062;BME280;22123;52.412;20.970;2023-05-08T04:04:40;102190.31;;;-0.68;100.00
36062;BME280;22123;52.412;20.970;2023-05-08T04:07:50;102221.38;;;-0.50;100.00
36062;BME280;22123;52.412;20.970;2023-05-08T04:10:41;102222.03;;;-0.43;100.00
36062;BME280;22123;52.412;20.970;2023-05-08T04:13:19;102196.84;;;-0.55;100.00
36062;BME280;22123;52.412;20.970;2023-05-08T04:15:51;102191.41;;;-0.50;100.00
36062;BME280;22123;52.412;20.970;2023-05-08T04:18:27;102191.97;;;-0.42;100.00
36062;BME280;22123;52.412;20.970;2023-05-08T04:20:54;102208.31;;;-0.31;100.00
36062;BME280;22123;52.412;20.970;2023-05-08T04:23:22;102231.34;;;-0.11;100.00
36062;BME280;22123;52.412;20.970;2023-05-08T04:25:50;102216.25;;;-0.09;100.00
36062;BME280;22123;52.412;20.970;2023-05-08T04:28:17;102227.31;;;0.03;100.00
36062;BME280;22123;52.412;20.970;2023-05-08T04:30:43;102248.47;;;0.26;100.00
36062;BME280;22123;52.412;20.970;2023-05-08T04:33:09;102254.22;;;0.36;100.00
36062;BME280;22123;52.412;20.970;2023-05-08T04:35:35;102224.72;;;0.23;100.00
36062;BME280;22123;52.412;20.970;2023-05-08T04:38:01;102227.00;;;0.32;100.00
36062;BME280;22123;52.412;20.970;2023-05-08T04:40:27;102227.38;;;0.45;100.00
36062;BME280;22123;52.412;20.970;2023-05-08T04:42:53;102213.91;;;0.50;100.00
36062;BME280;22123;52.412;20.970;2023-05-08T04:45:19;102241.38;;;0.69;100.00
36062;BME280;22123;52.412;20.970;2023-05-08T04:47:45;102244.56;;;0.78;100.00
36062;BME280;22123;52.412;20.970;2023-05-08T04:50:11;102249.50;;;0.87;100.00
36062;BME280;22123;52.412;20.970;2023-05-08T04:52:37;102214.63;;;0.76;100.00
36062;BME280;22123;52.412;20.970;2023-05-08T04:55:03;102233.94;;;0.98;100.00
36062;BME280;22123;52.412;20.970;2023-05-08T04:57:29;102249.06;;;1.17;100.00
36062;BME280;22123;52.412;20.970;2023-05-08T04:59:55;102256.56;;;1.28;100.00
36062;BME280;22123;52.412;20.970;2023-05-08T05:02:21;102263.66;;;1.48;100.00
36062;BME280;22123;52.412;20.970;2023-05-08T05:04:47;102241.69;;;1.44;100.00
36062;BME280;22123;52.412;20.970;2023-05-08T05:07:12;102259.22;;;1.67;100.00
36062;BME280;22123;52.412;20.970;2023-05-08T05:09:38;102235.47;;;1.64;100.00
36062;BME280;22123;52.412;20.970;2023-05-08T05:12:05;102279.84;;;2.00;100.00
36062;BME280;22123;52.412;20.970;2023-05-08T05:14:31;102253.56;;;1.94;100.00
36062;BME280;22123;52.412;20.970;2023-05-08T05:16:57;102253.81;;;2.07;100.00
36062;BME280;22123;52.412;20.970;2023-05-08T05:19:23;102244.69;;;2.13;100.00
36062;BME280;22123;52.412;20.970;2023-05-08T05:21:49;102276.03;;;2.42;100.00
36062;BME280;22123;52.412;20.970;2023-05-08T05:24:15;102243.66;;;2.34;100.00
36062;BME280;22123;52.412;20.970;2023-05-08T05:26:40;102268.25;;;2.57;100.00
36062;BME280;22123;52.412;20.970;2023-05-08T05:29:06;102251.28;;;2.59;100.00
36062;BME280;22123;52.412;20.970;2023-05-08T05:31:32;102272.03;;;2.88;100.00
36062;BME280;22123;52.412;20.970;2023-05-08T05:33:58;102232.84;;;2.74;100.00
36062;BME280;22123;52.412;20.970;2023-05-08T05:36:24;102236.66;;;2.86;100.00
36062;BME280;22123;52.412;20.970;2023-05-08T05:38:50;102250.66;;;3.07;100.00
36062;BME280;22123;52.412;20.970;2023-05-08T05:41:16;102240.72;;;3.10;100.00
36062;BME280;22123;52.412;20.970;2023-05-08T05:43:42;102260.91;;;3.32;100.00
36062;BME280;22123;52.412;20.970;2023-05-08T05:46:08;102243.66;;;3.39;100.00
36062;BME280;22123;52.412;20.970;2023-05-08T05:48:35;102251.25;;;3.63;100.00
36062;BME280;22123;52.412;20.970;2023-05-08T05:51:01;102279.22;;;3.88;100.00
36062;BME280;22123;52.412;20.970;2023-05-08T05:53:27;102281.13;;;4.02;100.00
36062;BME280;22123;52.412;20.970;2023-05-08T05:55:53;102258.09;;;4.00;100.00
36062;BME280;22123;52.412;20.970;2023-05-08T05:58:19;102247.59;;;4.13;100.00
36062;BME280;22123;52.412;20.970;2023-05-08T06:00:45;102278.72;;;4.45;100.00
36062;BME280;22123;52.412;20.970;2023-05-08T06:03:11;102250.41;;;4.42;100.00
36062;BME280;22123;52.412;20.970;2023-05-08T06:05:37;102288.34;;;4.78;100.00
36062;BME280;22123;52.412;20.970;2023-05-08T06:08:06;102281.91;;;4.82;100.00
36062;BME280;22123;52.412;20.970;2023-05-08T06:10:32;102237.84;;;4.75;100.00
36062;BME280;22123;52.412;20.970;2023-05-08T06:12:57;102277.03;;;5.04;100.00
36062;BME280;22123;52.412;20.970;2023-05-08T06:15:23;102270.56;;;5.09;100.00
36062;BME280;22123;52.412;20.970;2023-05-08T06:17:49;102283.16;;;5.21;100.00
36062;BME280;22123;52.412;20.970;2023-05-08T06:20:15;102260.84;;;5.22;100.00
36062;BME280;22123;52.412;20.970;2023-05-08T06:22:41;102236.13;;;5.18;100.00
36062;BME280;22123;52.412;20.970;2023-05-08T06:25:07;102257.25;;;5.37;100.00
36062;BME280;22123;52.412;20.970;2023-05-08T06:27:33;102245.78;;;5.50;100.00
36062;BME280;22123;52.412;20.970;2023-05-08T06:29:59;102254.72;;;5.78;100.00
36062;BME280;22123;52.412;20.970;2023-05-08T06:32:25;102266.06;;;6.24;100.00
36062;BME280;22123;52.412;20.970;2023-05-08T06:34:51;102284.19;;;7.27;100.00
36062;BME280;22123;52.412;20.970;2023-05-08T06:37:17;102234.94;;;9.00;100.00
36062;BME280;22123;52.412;20.970;2023-05-08T06:39:43;102255.69;;;10.99;100.00
36062;BME280;22123;52.412;20.970;2023-05-08T06:42:09;102255.63;;;11.62;100.00
36062;BME280;22123;52.412;20.970;2023-05-08T06:44:35;102280.44;;;11.56;100.00
36062;BME280;22123;52.412;20.970;2023-05-08T06:47:01;102289.66;;;11.54;100.00
36062;BME280;22123;52.412;20.970;2023-05-08T06:49:27;102277.03;;;11.85;100.00
36062;BME280;22123;52.412;20.970;2023-05-08T06:51:53;102254.31;;;12.48;100.00
36062;BME280;22123;52.412;20.970;2023-05-08T06:54:19;102272.53;;;13.62;100.00
36062;BME280;22123;52.412;20.970;2023-05-08T06:56:45;102281.44;;;14.09;100.00
36062;BME280;22123;52.412;20.970;2023-05-08T06:59:11;102280.19;;;15.30;100.00
36062;BME280;22123;52.412;20.970;2023-05-08T07:01:36;102259.78;;;16.21;100.00
36062;BME280;22123;52.412;20.970;2023-05-08T07:04:03;102275.78;;;16.49;100.00
36062;BME280;22123;52.412;20.970;2023-05-08T07:06:29;102267.06;;;15.78;100.00
36062;BME280;22123;52.412;20.970;2023-05-08T07:08:55;102227.31;;;14.82;100.00
36062;BME280;22123;52.412;20.970;2023-05-08T07:11:21;102270.97;;;14.42;100.00
36062;BME280;22123;52.412;20.970;2023-05-08T07:13:47;102253.13;;;13.94;100.00
36062;BME280;22123;52.412;20.970;2023-05-08T07:16:16;102234.66;;;14.07;100.00
36062;BME280;22123;52.412;20.970;2023-05-08T07:18:42;102264.19;;;14.74;100.00
36062;BME280;22123;52.412;20.970;2023-05-08T07:21:08;102248.53;;;15.73;100.00
36062;BME280;22123;52.412;20.970;2023-05-08T07:23:34;102257.13;;;17.12;100.00
36062;BME280;22123;52.412;20.970;2023-05-08T07:26:00;102246.88;;;18.26;100.00
36062;BME280;22123;52.412;20.970;2023-05-08T07:28:26;102253.59;;;20.12;81.73
36062;BME280;22123;52.412;20.970;2023-05-08T07:30:52;102237.31;;;22.57;48.07
36062;BME280;22123;52.412;20.970;2023-05-08T07:33:18;102237.25;;;25.06;38.70
36062;BME280;22123;52.412;20.970;2023-05-08T07:35:44;102264.19;;;27.70;35.33
36062;BME280;22123;52.412;20.970;2023-05-08T07:38:10;102239.59;;;29.45;30.63
36062;BME280;22123;52.412;20.970;2023-05-08T07:40:36;102242.16;;;30.46;27.26
36062;BME280;22123;52.412;20.970;2023-05-08T07:43:01;102238.53;;;31.63;26.26
36062;BME280;22123;52.412;20.970;2023-05-08T07:45:27;102243.78;;;32.49;24.21
36062;BME280;22123;52.412;20.970;2023-05-08T07:47:55;102267.47;;;32.82;22.41
36062;BME280;22123;52.412;20.970;2023-05-08T07:50:22;102249.88;;;33.13;22.53
36062;BME280;22123;52.412;20.970;2023-05-08T07:52:48;102244.41;;;33.62;22.27
36062;BME280;22123;52.412;20.970;2023-05-08T07:55:14;102256.38;;;34.23;21.79
36062;BME280;22123;52.412;20.970;2023-05-08T07:57:42;102229.00;;;34.60;21.62
36062;BME280;22123;52.412;20.970;2023-05-08T08:00:10;102241.19;;;35.33;21.47
36062;BME280;22123;52.412;20.970;2023-05-08T08:02:37;102235.84;;;35.99;20.39
36062;BME280;22123;52.412;20.970;2023-05-08T08:05:03;102238.16;;;36.49;20.53
36062;BME280;22123;52.412;20.970;2023-05-08T08:07:30;102248.91;;;37.07;19.25
36062;BME280;22123;52.412;20.970;2023-05-08T08:09:55;102243.94;;;36.71;18.24
36062;BME280;22123;52.412;20.970;2023-05-08T08:12:21;102245.06;;;36.89;18.70
36062;BME280;22123;52.412;20.970;2023-05-08T08:14:47;102258.41;;;37.53;19.22
36062;BME280;22123;52.412;20.970;2023-05-08T08:17:13;102259.75;;;37.42;18.30
36062;BME280;22123;52.412;20.970;2023-05-08T08:19:39;102240.50;;;35.41;19.68
36062;BME280;22123;52.412;20.970;2023-05-08T08:22:05;102263.31;;;35.78;19.70
36062;BME280;22123;52.412;20.970;2023-05-08T08:24:31;102243.38;;;34.82;18.49
36062;BME280;22123;52.412;20.970;2023-05-08T08:26:57;102236.81;;;34.63;20.41
36062;BME280;22123;52.412;20.970;2023-05-08T08:29:22;102227.34;;;34.19;21.29
36062;BME280;22123;52.412;20.970;2023-05-08T08:31:48;102237.38;;;33.81;21.18
36062;BME280;22123;52.412;20.970;2023-05-08T08:34:14;102246.50;;;33.96;21.09
36062;BME280;22123;52.412;20.970;2023-05-08T08:36:40;102224.78;;;34.28;21.05
36062;BME280;22123;52.412;20.970;2023-05-08T08:39:06;102239.00;;;32.90;20.51
36062;BME280;22123;52.412;20.970;2023-05-08T08:41:32;102261.56;;;30.73;23.48
36062;BME280;22123;52.412;20.970;2023-05-08T08:43:58;102226.31;;;28.12;24.94
36062;BME280;22123;52.412;20.970;2023-05-08T08:46:25;102229.34;;;26.20;29.27
36062;BME280;22123;52.412;20.970;2023-05-08T08:48:53;102250.19;;;25.24;29.22
36062;BME280;22123;52.412;20.970;2023-05-08T08:51:25;102249.03;;;24.24;31.97
36062;BME280;22123;52.412;20.970;2023-05-08T08:54:02;102229.69;;;24.05;33.06
36062;BME280;22123;52.412;20.970;2023-05-08T08:56:29;102228.59;;;24.77;32.93
36062;BME280;22123;52.412;20.970;2023-05-08T08:58:56;102233.00;;;24.78;30.48
36062;BME280;22123;52.412;20.970;2023-05-08T09:01:23;102238.03;;;25.13;33.05
36062;BME280;22123;52.412;20.970;2023-05-08T09:03:50;102212.50;;;25.43;32.36
36062;BME280;22123;52.412;20.970;2023-05-08T09:06:17;102216.19;;;25.55;30.71
36062;BME280;22123;52.412;20.970;2023-05-08T09:08:43;102201.47;;;24.48;32.50
36062;BME280;22123;52.412;20.970;2023-05-08T09:11:09;102215.81;;;23.80;33.60
36062;BME280;22123;52.412;20.970;2023-05-08T09:13:35;102210.63;;;23.52;33.44
36062;BME280;22123;52.412;20.970;2023-05-08T09:16:01;102217.28;;;22.97;34.78
36062;BME280;22123;52.412;20.970;2023-05-08T09:18:27;102232.50;;;22.60;35.81
36062;BME280;22123;52.412;20.970;2023-05-08T09:20:53;102243.78;;;22.16;35.87
36062;BME280;22123;52.412;20.970;2023-05-08T09:23:19;102218.06;;;21.34;36.83
36062;BME280;22123;52.412;20.970;2023-05-08T09:25:48;102232.72;;;21.19;39.13
36062;BME280;22123;52.412;20.970;2023-05-08T09:28:15;102244.94;;;20.89;38.45
36062;BME280;22123;52.412;20.970;2023-05-08T09:30:48;102198.53;;;20.15;39.33
36062;BME280;22123;52.412;20.970;2023-05-08T09:33:14;102176.13;;;20.05;41.06
36062;BME280;22123;52.412;20.970;2023-05-08T09:35:40;102213.91;;;20.38;40.44
36062;BME280;22123;52.412;20.970;2023-05-08T09:38:06;102209.56;;;20.07;40.17
36062;BME280;22123;52.412;20.970;2023-05-08T09:40:32;102228.16;;;20.12;39.79
36062;BME280;22123;52.412;20.970;2023-05-08T09:43:11;102208.19;;;19.96;39.66
36062;BME280;22123;52.412;20.970;2023-05-08T09:45:37;102196.16;;;19.61;43.04
36062;BME280;22123;52.412;20.970;2023-05-08T09:48:03;102136.69;;;19.11;40.57
36062;BME280;22123;52.412;20.970;2023-05-08T09:50:29;102197.31;;;19.07;43.37
36062;BME280;22123;52.412;20.970;2023-05-08T09:52:54;102205.38;;;18.62;46.94
36062;BME280;22123;52.412;20.970;2023-05-08T09:55:20;102214.59;;;18.15;48.44
36062;BME280;22123;52.412;20.970;2023-05-08T09:57:57;102199.97;;;17.68;50.73
36062;BME280;22123;52.412;20.970;2023-05-08T10:00:26;102225.19;;;17.70;50.99
36062;BME280;22123;52.412;20.970;2023-05-08T10:02:57;102194.63;;;17.51;53.95
36062;BME280;22123;52.412;20.970;2023-05-08T10:05:30;102212.19;;;17.80;51.96
36062;BME280;22123;52.412;20.970;2023-05-08T10:08:20;102195.69;;;18.36;51.02
36062;BME280;22123;52.412;20.970;2023-05-08T10:10:44;102172.75;;;19.22;45.38
36062;BME280;22123;52.412;20.970;2023-05-08T10:13:10;102200.88;;;20.19;37.94
36062;BME280;22123;52.412;20.970;2023-05-08T10:15:37;102193.75;;;20.39;39.81
36062;BME280;22123;52.412;20.970;2023-05-08T10:18:05;102164.22;;;20.35;39.12
36062;BME280;22123;52.412;20.970;2023-05-08T10:20:33;102180.91;;;20.90;39.24
36062;BME280;22123;52.412;20.970;2023-05-08T10:23:00;102195.09;;;21.70;41.05
36062;BME280;22123;52.412;20.970;2023-05-08T10:25:31;102180.06;;;22.21;37.24
36062;BME280;22123;52.412;20.970;2023-05-08T10:28:14;102191.16;;;21.86;37.10
36062;BME280;22123;52.412;20.970;2023-05-08T10:30:47;102190.91;;;21.39;37.07
36062;BME280;22123;52.412;20.970;2023-05-08T10:33:15;102168.38;;;21.02;39.18
36062;BME280;22123;52.412;20.970;2023-05-08T10:35:44;102174.88;;;21.71;37.33
36062;BME280;22123;52.412;20.970;2023-05-08T10:38:11;102141.72;;;21.17;36.96
36062;BME280;22123;52.412;20.970;2023-05-08T10:40:37;102163.84;;;19.94;37.24
36062;BME280;22123;52.412;20.970;2023-05-08T10:43:05;102173.63;;;19.07;39.11
36062;BME280;22123;52.412;20.970;2023-05-08T10:45:32;102149.06;;;20.10;37.59
36062;BME280;22123;52.412;20.970;2023-05-08T10:48:24;102149.13;;;21.65;36.09
36062;BME280;22123;52.412;20.970;2023-05-08T10:51:18;102140.84;;;22.67;35.22
36062;BME280;22123;52.412;20.970;2023-05-08T10:57:06;102161.03;;;21.44;34.45
36062;BME280;22123;52.412;20.970;2023-05-08T10:59:34;102145.63;;;20.73;38.62
36062;BME280;22123;52.412;20.970;2023-05-08T11:02:05;102168.50;;;20.94;43.59
36062;BME280;22123;52.412;20.970;2023-05-08T11:04:31;102140.75;;;21.39;39.36
36062;BME280;22123;52.412;20.970;2023-05-08T11:06:57;102124.47;;;21.65;40.17
36062;BME280;22123;52.412;20.970;2023-05-08T11:09:28;102142.38;;;21.68;39.03
36062;BME280;22123;52.412;20.970;2023-05-08T11:12:15;102142.59;;;21.66;38.85
36062;BME280;22123;52.412;20.970;2023-05-08T11:14:53;102140.56;;;22.09;37.17
36062;BME280;22123;52.412;20.970;2023-05-08T11:17:23;102141.88;;;22.19;39.01
36062;BME280;22123;52.412;20.970;2023-05-08T11:20:00;102147.56;;;22.24;37.54
36062;BME280;22123;52.412;20.970;2023-05-08T11:22:30;102121.41;;;22.22;36.91
36062;BME280;22123;52.412;20.970;2023-05-08T11:25:08;102119.72;;;22.68;34.69
36062;BME280;22123;52.412;20.970;2023-05-08T11:33:18;102115.34;;;24.16;32.16
36062;BME280;22123;52.412;20.970;2023-05-08T11:36:10;102127.78;;;24.51;34.80
36062;BME280;22123;52.412;20.970;2023-05-08T11:38:36;102109.16;;;24.46;36.48
36062;BME280;22123;52.412;20.970;2023-05-08T11:46:00;102135.22;;;21.67;35.18
36062;BME280;22123;52.412;20.970;2023-05-08T11:48:26;102106.53;;;20.58;38.14
36062;BME280;22123;52.412;20.970;2023-05-08T11:50:52;102082.94;;;19.27;38.64
36062;BME280;22123;52.412;20.970;2023-05-08T11:53:18;102097.75;;;18.88;40.87
36062;BME280;22123;52.412;20.970;2023-05-08T11:55:51;102132.56;;;19.16;42.24
36062;BME280;22123;52.412;20.970;2023-05-08T11:58:18;102122.00;;;19.42;43.46
36062;BME280;22123;52.412;20.970;2023-05-08T12:00:45;102138.13;;;19.89;43.24
36062;BME280;22123;52.412;20.970;2023-05-08T12:03:18;102113.91;;;19.86;40.64
36062;BME280;22123;52.412;20.970;2023-05-08T12:05:45;102138.50;;;19.71;42.65
36062;BME280;22123;52.412;20.970;2023-05-08T12:08:12;102105.00;;;19.62;44.08
36062;BME280;22123;52.412;20.970;2023-05-08T12:10:58;102102.69;;;19.44;42.59
36062;BME280;22123;52.412;20.970;2023-05-08T12:13:28;102114.78;;;19.56;42.44
36062;BME280;22123;52.412;20.970;2023-05-08T12:15:59;102116.56;;;19.13;40.12
36062;BME280;22123;52.412;20.970;2023-05-08T12:18:26;102095.06;;;18.80;43.78
36062;BME280;22123;52.412;20.970;2023-05-08T12:20:57;102112.13;;;19.11;43.34
36062;BME280;22123;52.412;20.970;2023-05-08T12:23:29;102128.19;;;19.36;44.92
36062;BME280;22123;52.412;20.970;2023-05-08T12:25:58;102092.53;;;19.23;44.88
36062;BME280;22123;52.412;20.970;2023-05-08T12:28:24;102078.31;;;19.27;44.63
36062;BME280;22123;52.412;20.970;2023-05-08T12:30:50;102089.91;;;19.29;41.52
36062;BME280;22123;52.412;20.970;2023-05-08T12:33:17;102083.22;;;19.32;42.45
36062;BME280;22123;52.412;20.970;2023-05-08T12:35:43;102098.06;;;19.44;44.37
36062;BME280;22123;52.412;20.970;2023-05-08T12:38:09;102106.94;;;19.46;46.75
36062;BME280;22123;52.412;20.970;2023-05-08T12:40:46;102106.16;;;19.53;44.92
36062;BME280;22123;52.412;20.970;2023-05-08T12:43:12;102074.25;;;19.38;46.60
36062;BME280;22123;52.412;20.970;2023-05-08T12:45:39;102087.81;;;19.46;46.58
36062;BME280;22123;52.412;20.970;2023-05-08T12:48:11;102056.47;;;19.27;43.87
36062;BME280;22123;52.412;20.970;2023-05-08T12:50:39;102097.63;;;19.41;45.58
36062;BME280;22123;52.412;20.970;2023-05-08T12:53:09;102066.03;;;18.87;49.05
36062;BME280;22123;52.412;20.970;2023-05-08T12:55:37;102090.38;;;19.18;48.77
36062;BME280;22123;52.412;20.970;2023-05-08T12:58:11;102071.75;;;19.07;48.29
36062;BME280;22123;52.412;20.970;2023-05-08T13:00:44;102051.44;;;19.09;44.35
36062;BME280;22123;52.412;20.970;2023-05-08T13:03:12;102073.19;;;19.18;39.71
36062;BME280;22123;52.412;20.970;2023-05-08T13:05:43;102055.19;;;19.08;39.74
36062;BME280;22123;52.412;20.970;2023-05-08T13:08:09;102095.56;;;18.83;42.45
36062;BME280;22123;52.412;20.970;2023-05-08T13:10:54;102098.84;;;18.25;42.84
36062;BME280;22123;52.412;20.970;2023-05-08T13:13:22;102054.25;;;17.49;43.11
36062;BME280;22123;52.412;20.970;2023-05-08T13:15:49;102089.41;;;17.27;45.60